createdAt,value
2023-05-20T00:00:28.234Z,13.81
2023-05-20T00:02:54.733Z,13.72
2023-05-20T00:05:21.229Z,13.60
2023-05-20T00:07:47.714Z,13.58
2023-05-20T00:10:16.624Z,13.47
2023-05-20T00:12:43.106Z,13.35
2023-05-20T00:15:13.869Z,13.37
2023-05-20T00:17:40.418Z,13.45
2023-05-20T00:20:08.151Z,13.49
2023-05-20T00:22:35.392Z,13.61
2023-05-20T00:25:01.794Z,13.87
2023-05-20T00:27:28.284Z,13.94
2023-05-20T00:29:54.888Z,14.09
2023-05-20T00:32:21.420Z,14.12
2023-05-20T00:35:00.718Z,14.21
2023-05-20T00:37:32.044Z,14.28
2023-05-20T00:39:58.537Z,14.26
2023-05-20T00:42:28.725Z,14.28
2023-05-20T00:45:00.715Z,14.31
2023-05-20T00:47:32.137Z,14.26
2023-05-20T00:49:59.988Z,14.17
2023-05-20T00:52:29.546Z,14.15
2023-05-20T00:55:02.133Z,14.10
2023-05-20T00:57:28.775Z,14.04
2023-05-20T00:59:55.628Z,13.93
2023-05-20T01:02:23.824Z,13.77
2023-05-20T01:04:50.578Z,13.73
2023-05-20T01:07:19.134Z,13.73
2023-05-20T01:09:45.843Z,13.71
2023-05-20T01:12:20.761Z,13.62
2023-05-20T01:14:56.537Z,13.61
2023-05-20T01:17:27.157Z,13.54
2023-05-20T01:19:55.264Z,13.51
2023-05-20T01:22:27.575Z,13.56
2023-05-20T01:24:54.165Z,13.41
2023-05-20T01:27:25.703Z,13.46
2023-05-20T01:29:53.268Z,13.49
2023-05-20T01:32:23.235Z,13.56
2023-05-20T01:34:51.395Z,13.71
2023-05-20T01:37:19.825Z,13.68
2023-05-20T01:39:49.367Z,13.81
2023-05-20T01:42:17.107Z,14.08
2023-05-20T01:44:43.912Z,14.04
2023-05-20T01:47:10.682Z,14.06
2023-05-20T01:49:37.115Z,14.05
2023-05-20T01:52:05.026Z,14.09
2023-05-20T01:54:31.508Z,14.14
2023-05-20T01:57:00.430Z,14.19
2023-05-20T01:59:29.325Z,14.14
2023-05-20T02:02:00.540Z,14.16
2023-05-20T02:04:27.333Z,14.18
2023-05-20T02:06:54.303Z,14.08
2023-05-20T02:09:20.775Z,13.93
2023-05-20T02:11:52.057Z,13.85
2023-05-20T02:14:18.526Z,13.71
2023-05-20T02:16:48.462Z,13.60
2023-05-20T02:19:20.715Z,13.52
2023-05-20T02:21:48.938Z,13.39
2023-05-20T02:24:16.152Z,13.27
2023-05-20T02:26:47.304Z,13.25
2023-05-20T02:29:13.808Z,13.14
2023-05-20T02:31:40.230Z,13.07
2023-05-20T02:34:08.832Z,13.02
2023-05-20T02:36:35.463Z,13.00
2023-05-20T02:39:02.373Z,12.99
2023-05-20T02:41:30.224Z,12.94
2023-05-20T02:43:56.714Z,12.91
2023-05-20T02:46:23.187Z,12.86
2023-05-20T02:49:36.509Z,12.80
2023-05-20T02:52:03.079Z,12.79
2023-05-20T02:54:32.457Z,12.78
2023-05-20T02:56:59.050Z,12.73
2023-05-20T02:59:25.687Z,12.72
2023-05-20T03:01:52.449Z,12.68
2023-05-20T03:04:21.928Z,12.67
2023-05-20T03:06:48.595Z,12.64
2023-05-20T03:09:18.703Z,12.63
2023-05-20T03:11:47.614Z,12.60
2023-05-20T03:14:14.110Z,12.57
2023-05-20T03:16:43.129Z,12.56
2023-05-20T03:19:09.705Z,12.56
2023-05-20T03:21:36.213Z,12.53
2023-05-20T03:24:02.742Z,12.52
2023-05-20T03:26:30.526Z,12.48
2023-05-20T03:28:56.933Z,12.46
2023-05-20T03:31:23.571Z,12.45
2023-05-20T03:33:50.106Z,12.44
2023-05-20T03:36:16.534Z,12.41
2023-05-20T03:38:42.928Z,12.40
2023-05-20T03:41:09.462Z,12.37
2023-05-20T03:43:35.932Z,12.35
2023-05-20T03:46:02.361Z,12.36
2023-05-20T03:48:28.940Z,12.35
2023-05-20T03:50:57.842Z,12.35
2023-05-20T03:53:26.688Z,12.30
2023-05-20T03:55:55.415Z,12.29
2023-05-20T03:58:22.294Z,12.33
2023-05-20T04:00:51.428Z,12.35
2023-05-20T04:03:18.420Z,12.33
2023-05-20T04:05:44.924Z,12.36
2023-05-20T04:08:13.570Z,12.36
2023-05-20T04:10:43.007Z,12.35
2023-05-20T04:13:12.801Z,12.36
2023-05-20T04:15:39.230Z,12.39
2023-05-20T04:18:06.295Z,12.39
2023-05-20T04:20:33.113Z,12.43
2023-05-20T04:22:59.568Z,12.42
2023-05-20T04:25:26.312Z,12.44
2023-05-20T04:27:54.223Z,12.45
2023-05-20T04:30:22.002Z,12.46
2023-05-20T04:32:50.723Z,12.51
2023-05-20T04:35:17.582Z,12.50
2023-05-20T04:37:48.041Z,12.48
2023-05-20T04:40:14.658Z,12.54
2023-05-20T04:42:45.899Z,12.54
2023-05-20T04:45:13.582Z,12.58
2023-05-20T04:47:44.388Z,12.58
2023-05-20T04:50:11.816Z,12.59
2023-05-20T04:52:42.740Z,12.62
2023-05-20T04:55:12.355Z,12.64
2023-05-20T04:57:42.254Z,12.67
2023-05-20T05:00:11.019Z,12.69
2023-05-20T05:02:38.299Z,12.70
2023-05-20T05:05:07.756Z,12.75
2023-05-20T05:07:34.296Z,12.77
2023-05-20T05:10:01.195Z,12.79
2023-05-20T05:12:30.027Z,12.77
2023-05-20T05:14:58.658Z,12.80
2023-05-20T05:17:25.299Z,12.85
2023-05-20T05:19:51.777Z,12.88
2023-05-20T05:22:18.301Z,12.94
2023-05-20T05:24:44.878Z,12.96
2023-05-20T05:27:11.445Z,12.95
2023-05-20T05:29:37.881Z,13.01
2023-05-20T05:32:04.851Z,13.04
2023-05-20T05:34:36.211Z,13.11
2023-05-20T05:37:02.657Z,13.12
2023-05-20T05:39:29.180Z,13.24
2023-05-20T05:41:56.194Z,13.34
2023-05-20T05:44:22.675Z,13.33
2023-05-20T05:46:49.252Z,13.49
2023-05-20T05:49:15.936Z,13.60
2023-05-20T05:51:42.389Z,13.69
2023-05-20T05:54:08.812Z,13.79
2023-05-20T05:56:35.231Z,13.85
2023-05-20T05:59:04.640Z,13.97
2023-05-20T06:01:34.075Z,14.00
2023-05-20T06:04:00.793Z,14.14
2023-05-20T06:06:27.345Z,14.18
2023-05-20T06:08:56.187Z,14.27
2023-05-20T06:11:23.915Z,14.44
2023-05-20T06:13:50.719Z,14.57
2023-05-20T06:16:17.213Z,14.66
2023-05-20T06:18:44.150Z,14.75
2023-05-20T06:21:10.587Z,14.78
2023-05-20T06:23:37.216Z,14.80
2023-05-20T06:26:03.828Z,14.92
2023-05-20T06:28:30.879Z,15.03
2023-05-20T06:31:00.157Z,15.12
2023-05-20T06:33:27.540Z,15.20
2023-05-20T06:35:58.951Z,15.28
2023-05-20T06:38:25.462Z,15.35
2023-05-20T06:40:54.610Z,15.47
2023-05-20T06:43:25.733Z,15.53
2023-05-20T06:45:52.213Z,15.50
2023-05-20T06:48:18.716Z,15.65
2023-05-20T06:50:45.594Z,15.65
2023-05-20T06:53:12.158Z,15.76
2023-05-20T06:55:38.709Z,15.78
2023-05-20T06:58:07.537Z,15.84
2023-05-20T07:00:39.264Z,15.91
2023-05-20T07:03:05.700Z,16.37
2023-05-20T07:05:34.738Z,16.72
2023-05-20T07:08:01.353Z,16.99
2023-05-20T07:10:27.859Z,17.22
2023-05-20T07:12:54.287Z,17.50
2023-05-20T07:15:20.845Z,17.64
2023-05-20T07:17:47.358Z,17.74
2023-05-20T07:20:13.825Z,17.78
2023-05-20T07:22:44.074Z,17.79
2023-05-20T07:25:11.050Z,18.02
2023-05-20T07:27:37.701Z,18.26
2023-05-20T07:30:04.719Z,18.40
2023-05-20T07:32:31.435Z,18.50
2023-05-20T07:34:57.930Z,18.59
2023-05-20T07:37:24.562Z,18.50
2023-05-20T07:39:51.123Z,18.73
2023-05-20T07:42:17.538Z,18.70
2023-05-20T07:44:44.149Z,18.80
2023-05-20T07:47:10.636Z,19.10
2023-05-20T07:49:37.165Z,18.87
2023-05-20T07:52:03.810Z,19.04
2023-05-20T07:54:33.328Z,19.28
2023-05-20T07:57:02.147Z,19.28
2023-05-20T07:59:30.984Z,19.49
2023-05-20T08:01:57.973Z,19.80
2023-05-20T08:04:27.722Z,19.58
2023-05-20T08:06:55.331Z,19.55
2023-05-20T08:09:21.795Z,19.60
2023-05-20T08:11:48.236Z,19.69
2023-05-20T08:14:17.126Z,19.67
2023-05-20T08:16:46.455Z,19.61
2023-05-20T08:19:15.323Z,19.79
2023-05-20T08:21:42.497Z,19.35
2023-05-20T08:24:08.910Z,19.66
2023-05-20T08:26:35.402Z,19.48
2023-05-20T08:29:01.909Z,19.55
2023-05-20T08:31:31.003Z,19.32
2023-05-20T08:33:57.801Z,19.43
2023-05-20T08:36:24.756Z,19.58
2023-05-20T08:38:53.941Z,19.61
2023-05-20T08:41:22.374Z,19.80
2023-05-20T08:43:50.523Z,19.79
2023-05-20T08:46:21.952Z,20.03
2023-05-20T08:48:48.618Z,20.16
2023-05-20T08:51:17.634Z,20.16
2023-05-20T08:53:44.667Z,20.08
2023-05-20T08:56:12.837Z,20.36
2023-05-20T08:58:39.401Z,20.51
2023-05-20T09:01:07.752Z,20.61
2023-05-20T09:03:34.494Z,20.69
2023-05-20T09:06:09.868Z,20.39
2023-05-20T09:08:39.486Z,20.44
2023-05-20T09:11:06.257Z,20.44
2023-05-20T09:13:32.865Z,20.56
2023-05-20T09:16:05.468Z,20.76
2023-05-20T09:18:33.080Z,20.65
2023-05-20T09:21:07.039Z,20.82
2023-05-20T09:23:33.533Z,21.11
2023-05-20T09:26:02.368Z,21.18
2023-05-20T09:28:28.819Z,21.48
2023-05-20T09:30:59.842Z,21.60
2023-05-20T09:33:31.845Z,21.62
2023-05-20T09:36:07.407Z,21.67
2023-05-20T09:38:37.932Z,21.90
2023-05-20T09:41:12.395Z,22.08
2023-05-20T09:43:43.721Z,22.23
2023-05-20T09:46:10.795Z,22.34
2023-05-20T09:48:39.675Z,22.04
2023-05-20T09:51:07.823Z,22.06
2023-05-20T09:53:37.314Z,22.35
2023-05-20T09:56:04.103Z,22.61
2023-05-20T09:58:31.652Z,22.69
2023-05-20T10:00:58.291Z,22.58
2023-05-20T10:03:27.963Z,22.54
2023-05-20T10:06:17.532Z,22.71
2023-05-20T10:09:05.900Z,22.78
2023-05-20T10:12:04.078Z,22.52
2023-05-20T10:14:55.640Z,22.72
2023-05-20T10:17:25.308Z,22.74
2023-05-20T10:19:58.912Z,22.82
2023-05-20T10:22:29.838Z,22.94
2023-05-20T10:25:01.244Z,22.85
2023-05-20T10:27:27.651Z,22.59
2023-05-20T10:29:57.510Z,22.66
2023-05-20T10:32:33.055Z,22.46
2023-05-20T10:35:02.068Z,22.56
2023-05-20T10:37:31.162Z,22.60
2023-05-20T10:40:11.670Z,22.40
2023-05-20T10:42:38.750Z,22.42
2023-05-20T10:45:06.754Z,22.51
2023-05-20T10:47:33.592Z,22.44
2023-05-20T10:50:02.035Z,22.49
2023-05-20T10:52:33.007Z,22.66
2023-05-20T10:55:01.012Z,22.68
2023-05-20T10:57:31.027Z,22.92
2023-05-20T10:59:57.865Z,23.14
2023-05-20T11:02:27.157Z,23.22
2023-05-20T11:04:56.211Z,23.04
2023-05-20T11:07:29.691Z,22.95
2023-05-20T11:09:56.838Z,22.79
2023-05-20T11:12:24.166Z,23.02
2023-05-20T11:14:51.626Z,23.12
2023-05-20T11:17:20.786Z,23.16
2023-05-20T11:19:48.391Z,22.96
2023-05-20T11:22:15.148Z,22.82
2023-05-20T11:24:41.770Z,22.75
2023-05-20T11:27:08.288Z,22.72
2023-05-20T11:29:35.246Z,22.63
2023-05-20T11:32:02.163Z,22.55
2023-05-20T11:34:36.423Z,22.23
2023-05-20T11:37:07.968Z,22.29
2023-05-20T11:39:34.626Z,22.35
2023-05-20T11:42:01.134Z,22.22
2023-05-20T11:44:27.554Z,22.30
2023-05-20T11:47:01.414Z,22.16
2023-05-20T11:49:28.512Z,22.32
2023-05-20T11:51:54.944Z,22.45
2023-05-20T11:54:23.397Z,22.75
2023-05-20T11:56:49.924Z,23.07
2023-05-20T11:59:18.937Z,23.40
2023-05-20T12:01:45.751Z,23.40
2023-05-20T12:04:16.415Z,23.19
2023-05-20T12:06:44.097Z,23.29
2023-05-20T12:09:11.110Z,23.28
2023-05-20T12:11:40.678Z,23.20
2023-05-20T12:14:08.053Z,23.02
2023-05-20T12:16:36.027Z,23.04
2023-05-20T12:19:02.999Z,22.99
2023-05-20T12:21:30.025Z,22.76
2023-05-20T12:23:58.005Z,22.90
2023-05-20T12:26:28.028Z,22.59
2023-05-20T12:29:00.468Z,22.65
2023-05-20T12:31:27.007Z,22.87
2023-05-20T12:33:53.451Z,22.90
2023-05-20T12:36:20.039Z,22.78
2023-05-20T12:38:48.815Z,22.81
2023-05-20T12:41:15.440Z,22.92
2023-05-20T12:43:41.909Z,22.98
2023-05-20T12:46:08.603Z,23.12
2023-05-20T12:48:35.136Z,22.88
2023-05-20T12:51:01.652Z,23.01
2023-05-20T12:53:28.147Z,23.01
2023-05-20T12:55:54.723Z,23.06
2023-05-20T12:58:21.373Z,23.14
2023-05-20T13:00:47.901Z,23.08
2023-05-20T13:03:14.677Z,23.05
2023-05-20T13:05:43.921Z,23.04
2023-05-20T13:08:12.495Z,23.05
2023-05-20T13:10:41.574Z,22.92
2023-05-20T13:13:10.686Z,22.91
2023-05-20T13:15:37.110Z,22.97
2023-05-20T13:18:10.441Z,23.08
2023-05-20T13:20:37.325Z,22.89
2023-05-20T13:23:04.084Z,22.90
2023-05-20T13:25:31.785Z,23.10
2023-05-20T13:27:58.447Z,23.23
2023-05-20T13:30:24.983Z,23.06
2023-05-20T13:32:56.634Z,22.95
2023-05-20T13:35:23.114Z,23.01
2023-05-20T13:37:49.555Z,23.06
2023-05-20T13:40:16.051Z,23.14
2023-05-20T13:42:42.588Z,23.21
2023-05-20T13:45:09.403Z,23.33
2023-05-20T13:47:36.234Z,23.21
2023-05-20T13:50:04.922Z,23.26
2023-05-20T13:52:31.307Z,23.32
2023-05-20T13:54:57.807Z,23.16
2023-05-20T13:57:26.631Z,23.14
2023-05-20T13:59:53.022Z,23.07
2023-05-20T14:02:19.597Z,22.95
2023-05-20T14:04:47.099Z,22.96
2023-05-20T14:07:13.855Z,22.99
2023-05-20T14:09:40.308Z,23.17
2023-05-20T14:12:09.351Z,23.51
2023-05-20T14:14:35.952Z,23.56
2023-05-20T14:17:02.458Z,23.75
2023-05-20T14:19:31.198Z,23.58
2023-05-20T14:22:01.019Z,23.61
2023-05-20T14:24:30.345Z,23.62
2023-05-20T14:26:59.451Z,23.43
2023-05-20T14:29:25.910Z,23.36
2023-05-20T14:31:52.443Z,23.27
2023-05-20T14:34:18.998Z,23.22
2023-05-20T14:36:45.579Z,23.30
2023-05-20T14:39:15.152Z,23.31
2023-05-20T14:41:41.648Z,23.37
2023-05-20T14:44:08.076Z,23.42
2023-05-20T14:46:34.909Z,23.29
2023-05-20T14:49:01.414Z,23.21
2023-05-20T14:51:27.874Z,23.15
2023-05-20T14:53:54.403Z,23.03
2023-05-20T14:56:24.020Z,23.04
2023-05-20T14:58:50.446Z,22.89
2023-05-20T15:01:17.698Z,22.88
2023-05-20T15:03:44.234Z,22.76
2023-05-20T15:06:10.836Z,22.65
2023-05-20T15:08:39.737Z,22.71
2023-05-20T15:11:06.205Z,22.77
2023-05-20T15:13:32.683Z,22.65
2023-05-20T15:16:01.572Z,22.64
2023-05-20T15:18:28.013Z,22.68
2023-05-20T15:20:54.543Z,22.57
2023-05-20T15:23:21.554Z,22.55
2023-05-20T15:25:50.195Z,22.49
2023-05-20T15:28:19.484Z,22.49
2023-05-20T15:30:55.702Z,22.41
2023-05-20T15:33:22.896Z,22.37
2023-05-20T15:35:49.440Z,22.45
2023-05-20T15:38:18.283Z,22.54
2023-05-20T15:40:44.793Z,22.44
2023-05-20T15:43:11.236Z,22.49
2023-05-20T15:45:37.816Z,22.54
2023-05-20T15:48:04.524Z,22.57
2023-05-20T15:50:30.979Z,22.62
2023-05-20T15:52:57.551Z,22.62
2023-05-20T15:55:24.104Z,22.53
2023-05-20T15:57:55.759Z,22.47
2023-05-20T16:00:22.778Z,22.48
2023-05-20T16:02:49.453Z,22.46
2023-05-20T16:05:16.210Z,22.47
2023-05-20T16:07:42.850Z,22.44
2023-05-20T16:10:10.082Z,22.50
2023-05-20T16:12:36.518Z,22.50
2023-05-20T16:15:03.265Z,22.56
2023-05-20T16:17:32.497Z,22.51
2023-05-20T16:19:59.046Z,22.44
2023-05-20T16:22:25.523Z,22.41
2023-05-20T16:24:54.389Z,22.33
2023-05-20T16:27:23.271Z,22.28
2023-05-20T16:29:50.565Z,22.31
2023-05-20T16:32:17.284Z,22.30
2023-05-20T16:34:43.676Z,22.27
2023-05-20T16:37:15.936Z,22.17
2023-05-20T16:39:42.398Z,22.20
2023-05-20T16:42:09.212Z,22.14
2023-05-20T16:44:38.697Z,22.13
2023-05-20T16:47:11.624Z,22.10
2023-05-20T16:49:38.144Z,22.00
2023-05-20T16:52:05.057Z,22.09
2023-05-20T16:54:32.620Z,22.19
2023-05-20T16:56:59.133Z,22.10
2023-05-20T16:59:28.492Z,22.10
2023-05-20T17:01:54.904Z,22.01
2023-05-20T17:04:21.456Z,22.04
2023-05-20T17:06:50.448Z,21.86
2023-05-20T17:09:16.853Z,21.92
2023-05-20T17:11:43.746Z,21.88
2023-05-20T17:14:10.325Z,21.77
2023-05-20T17:16:36.852Z,21.72
2023-05-20T17:19:03.389Z,21.65
2023-05-20T17:21:32.561Z,21.52
2023-05-20T17:23:59.082Z,21.49
2023-05-20T17:26:25.917Z,21.46
2023-05-20T17:28:52.548Z,21.33
2023-05-20T17:31:19.140Z,21.28
2023-05-20T17:33:48.083Z,21.17
2023-05-20T17:36:16.438Z,21.14
2023-05-20T17:38:43.200Z,21.12
2023-05-20T17:41:09.641Z,21.08
2023-05-20T17:43:38.243Z,21.00
2023-05-20T17:46:04.918Z,20.91
2023-05-20T17:48:32.901Z,20.88
2023-05-20T17:50:59.385Z,20.84
2023-05-20T17:53:26.004Z,20.76
2023-05-20T17:55:53.121Z,20.70
2023-05-20T17:58:24.686Z,20.59
2023-05-20T18:00:51.902Z,20.55
2023-05-20T18:03:19.174Z,20.45
2023-05-20T18:05:46.538Z,20.37
2023-05-20T18:08:13.011Z,20.30
2023-05-20T18:10:39.563Z,20.28
2023-05-20T18:13:06.416Z,20.27
2023-05-20T18:15:32.853Z,20.18
2023-05-20T18:17:59.376Z,20.09
2023-05-20T18:20:25.871Z,20.04
2023-05-20T18:22:58.127Z,20.00
2023-05-20T18:25:25.798Z,19.97
2023-05-20T18:27:52.537Z,19.96
2023-05-20T18:30:19.105Z,19.88
2023-05-20T18:32:45.544Z,19.85
2023-05-20T18:35:12.091Z,19.83
2023-05-20T18:37:38.614Z,19.78
2023-05-20T18:40:08.289Z,19.73
2023-05-20T18:42:34.808Z,19.70
2023-05-20T18:45:01.468Z,19.65
2023-05-20T18:47:28.262Z,19.61
2023-05-20T18:49:55.778Z,19.56
2023-05-20T18:52:22.190Z,19.49
2023-05-20T18:54:48.644Z,19.42
2023-05-20T18:57:15.442Z,19.35
2023-05-20T18:59:41.977Z,19.35
2023-05-20T19:02:10.760Z,19.26
2023-05-20T19:04:37.284Z,19.21
2023-05-20T19:07:06.924Z,19.10
2023-05-20T19:09:33.308Z,19.05
2023-05-20T19:11:59.806Z,19.01
2023-05-20T19:14:31.307Z,18.96
2023-05-20T19:17:01.419Z,18.91
2023-05-20T19:19:28.338Z,18.83
2023-05-20T19:21:55.016Z,18.80
2023-05-20T19:24:21.480Z,18.73
2023-05-20T19:26:47.918Z,18.71
2023-05-20T19:29:15.360Z,18.65
2023-05-20T19:31:46.606Z,18.63
2023-05-20T19:34:13.255Z,18.56
2023-05-20T19:36:42.560Z,18.48
2023-05-20T19:39:13.223Z,18.42
2023-05-20T19:41:40.255Z,18.41
2023-05-20T19:44:08.425Z,18.36
2023-05-20T19:46:38.294Z,18.31
2023-05-20T19:49:07.521Z,18.25
2023-05-20T19:51:34.661Z,18.20
2023-05-20T19:54:01.592Z,18.16
2023-05-20T19:56:28.060Z,18.12
2023-05-20T19:58:54.476Z,18.07
2023-05-20T20:01:21.530Z,18.05
2023-05-20T20:03:48.015Z,18.01
2023-05-20T20:06:14.436Z,17.96
2023-05-20T20:08:41.578Z,17.92
2023-05-20T20:11:09.273Z,17.88
2023-05-20T20:13:35.798Z,17.85
2023-05-20T20:16:02.875Z,17.80
2023-05-20T20:18:29.581Z,17.81
2023-05-20T20:20:59.595Z,17.78
2023-05-20T20:23:26.808Z,17.76
2023-05-20T20:25:53.205Z,17.74
2023-05-20T20:28:19.646Z,17.70
2023-05-20T20:30:46.264Z,17.66
2023-05-20T20:33:13.325Z,17.61
2023-05-20T20:35:39.816Z,17.59
2023-05-20T20:38:09.679Z,17.57
2023-05-20T20:40:42.493Z,17.52
2023-05-20T20:43:10.992Z,17.46
2023-05-20T20:45:37.619Z,17.43
2023-05-20T20:48:08.038Z,17.42
2023-05-20T20:50:35.653Z,17.39
2023-05-20T20:53:02.609Z,17.34
2023-05-20T20:55:32.173Z,17.29
2023-05-20T20:58:02.488Z,17.27
2023-05-20T21:00:29.414Z,17.23
2023-05-20T21:02:56.267Z,17.20
2023-05-20T21:05:26.462Z,17.16
2023-05-20T21:07:59.247Z,17.13
2023-05-20T21:10:29.712Z,17.11
2023-05-20T21:13:02.029Z,17.07
2023-05-20T21:15:28.480Z,17.04
2023-05-20T21:17:55.031Z,17.01
2023-05-20T21:20:21.968Z,16.98
2023-05-20T21:22:53.101Z,16.95
2023-05-20T21:25:21.987Z,16.93
2023-05-20T21:27:48.540Z,16.92
2023-05-20T21:30:16.362Z,16.89
2023-05-20T21:32:42.913Z,16.90
2023-05-20T21:35:09.701Z,16.85
2023-05-20T21:37:36.184Z,16.82
2023-05-20T21:40:02.866Z,16.81
2023-05-20T21:42:29.380Z,16.77
2023-05-20T21:44:55.864Z,16.77
2023-05-20T21:47:22.292Z,16.74
2023-05-20T21:49:51.400Z,16.73
2023-05-20T21:52:17.823Z,16.73
2023-05-20T21:54:44.289Z,16.70
2023-05-20T21:57:10.850Z,16.67
2023-05-20T21:59:37.261Z,16.64
2023-05-20T22:02:06.177Z,16.59
2023-05-20T22:04:33.426Z,16.60
2023-05-20T22:07:02.200Z,16.57
2023-05-20T22:09:28.899Z,16.56
2023-05-20T22:11:56.185Z,16.53
2023-05-20T22:14:23.576Z,16.52
2023-05-20T22:16:50.131Z,16.52
2023-05-20T22:19:19.605Z,16.50
2023-05-20T22:21:50.856Z,16.46
2023-05-20T22:24:18.068Z,16.42
2023-05-20T22:26:44.678Z,16.38
2023-05-20T22:29:11.127Z,16.38
2023-05-20T22:31:38.082Z,16.30
2023-05-20T22:34:09.388Z,16.25
2023-05-20T22:36:36.360Z,16.24
2023-05-20T22:39:04.405Z,16.19
2023-05-20T22:41:30.969Z,16.17
2023-05-20T22:43:57.429Z,16.18
2023-05-20T22:46:24.671Z,16.17
2023-05-20T22:48:53.029Z,16.17
2023-05-20T22:51:22.326Z,16.16
2023-05-20T22:53:52.236Z,16.13
2023-05-20T22:56:23.761Z,16.13
2023-05-20T22:58:50.340Z,16.13
2023-05-20T23:01:17.188Z,16.10
2023-05-20T23:03:45.179Z,16.09
2023-05-20T23:06:14.032Z,16.06
2023-05-20T23:08:42.840Z,16.07
2023-05-20T23:11:09.489Z,16.04
2023-05-20T23:13:36.025Z,16.02
2023-05-20T23:16:02.445Z,16.02
2023-05-20T23:18:28.857Z,16.01
2023-05-20T23:20:58.092Z,15.96
2023-05-20T23:23:30.372Z,15.95
2023-05-20T23:25:57.617Z,15.96
2023-05-20T23:28:24.088Z,15.96
2023-05-20T23:30:52.851Z,15.97
2023-05-20T23:33:24.776Z,15.96
2023-05-20T23:35:52.773Z,15.92
2023-05-20T23:38:24.258Z,15.88
2023-05-20T23:40:50.847Z,15.86
2023-05-20T23:43:17.335Z,15.80
2023-05-20T23:45:43.882Z,15.80
2023-05-20T23:48:13.118Z,15.78
2023-05-20T23:50:40.595Z,15.76
2023-05-20T23:53:07.127Z,15.72
2023-05-20T23:55:33.855Z,15.71
2023-05-20T23:58:00.748Z,15.69
